createdAt,value
2023-01-20T00:03:56.553Z,1567
2023-01-20T00:09:15.124Z,1562
2023-01-20T00:14:33.088Z,1573
2023-01-20T00:19:51.575Z,1569
2023-01-20T00:25:09.819Z,1569
2023-01-20T00:30:28.068Z,1558
2023-01-20T00:35:46.344Z,1544
2023-01-20T00:41:05.131Z,1533
2023-01-20T00:46:23.670Z,1517
2023-01-20T00:51:42.172Z,1505
2023-01-20T00:57:00.928Z,1492
2023-01-20T01:02:19.326Z,1504
2023-01-20T01:07:38.031Z,1529
2023-01-20T01:12:56.845Z,1570
2023-01-20T01:18:15.397Z,1601
2023-01-20T01:23:33.952Z,1611
2023-01-20T01:28:52.723Z,1605
2023-01-20T01:34:11.313Z,1616
2023-01-20T01:39:29.242Z,1619
2023-01-20T01:44:47.809Z,1620
2023-01-20T01:50:06.364Z,1607
2023-01-20T01:55:24.578Z,1601
2023-01-20T02:00:42.790Z,1601
2023-01-20T02:06:01.265Z,1596
2023-01-20T02:11:19.281Z,1587
2023-01-20T02:16:22.202Z,1589
2023-01-20T02:21:40.691Z,1577
2023-01-20T02:26:59.203Z,1572
2023-01-20T02:32:17.188Z,1558
2023-01-20T02:37:36.009Z,1537
2023-01-20T02:42:54.225Z,1527
2023-01-20T02:48:13.022Z,1519
2023-01-20T02:53:31.231Z,1522
2023-01-20T02:58:49.578Z,1536
2023-01-20T03:04:08.162Z,1533
2023-01-20T03:09:27.001Z,1534
2023-01-20T03:14:44.948Z,1532
2023-01-20T03:20:03.200Z,1517
2023-01-20T03:25:21.444Z,1525
2023-01-20T03:30:40.289Z,1514
2023-01-20T03:35:58.889Z,1515
2023-01-20T03:41:17.411Z,1509
2023-01-20T03:46:35.890Z,1520
2023-01-20T03:51:54.425Z,1518
2023-01-20T03:57:13.005Z,1518
2023-01-20T04:02:30.968Z,1523
2023-01-20T04:07:49.931Z,1526
2023-01-20T04:13:07.858Z,1532
2023-01-20T04:18:26.718Z,1530
2023-01-20T04:23:45.553Z,1518
2023-01-20T04:29:04.326Z,1527
2023-01-20T04:34:22.567Z,1545
2023-01-20T04:39:40.798Z,1541
2023-01-20T04:44:58.757Z,1528
2023-01-20T04:50:17.717Z,1521
2023-01-20T04:55:36.529Z,1520
2023-01-20T05:00:54.816Z,1528
2023-01-20T05:06:13.302Z,1547
2023-01-20T05:11:31.810Z,1564
2023-01-20T05:16:50.303Z,1574
2023-01-20T05:22:08.838Z,1591
2023-01-20T05:27:27.052Z,1594
2023-01-20T05:32:45.294Z,1587
2023-01-20T05:38:03.489Z,1566
2023-01-20T05:43:21.422Z,1577
2023-01-20T05:48:39.683Z,1572
2023-01-20T05:53:57.602Z,1596
2023-01-20T05:59:15.855Z,1620
2023-01-20T06:04:34.069Z,1604
2023-01-20T06:09:52.563Z,1595
2023-01-20T06:15:10.524Z,1602
2023-01-20T06:20:28.856Z,1602
2023-01-20T06:25:47.651Z,1603
2023-01-20T06:31:06.222Z,1601
2023-01-20T06:36:24.815Z,1612
2023-01-20T06:41:43.603Z,1644
2023-01-20T06:47:02.136Z,1632
2023-01-20T06:52:20.647Z,1632
2023-01-20T06:57:38.831Z,1632
2023-01-20T07:02:57.093Z,1633
2023-01-20T07:08:15.093Z,1639
2023-01-20T07:13:36.921Z,1647
2023-01-20T07:18:55.136Z,1638
2023-01-20T07:24:13.708Z,1622
2023-01-20T07:29:31.918Z,1615
2023-01-20T07:34:50.316Z,1614
2023-01-20T07:39:53.023Z,1603
2023-01-20T07:45:11.267Z,1606
2023-01-20T07:50:29.203Z,1604
2023-01-20T07:55:47.701Z,1600
2023-01-20T08:01:06.307Z,1596
2023-01-20T08:06:25.154Z,1603
2023-01-20T08:11:43.480Z,1626
2023-01-20T08:16:46.388Z,1605
2023-01-20T08:22:05.041Z,1571
2023-01-20T08:27:23.735Z,1518
2023-01-20T08:32:42.733Z,1480
2023-01-20T08:38:00.984Z,1454
2023-01-20T08:43:19.353Z,1447
2023-01-20T08:48:38.148Z,1431
2023-01-20T08:53:56.787Z,1409
2023-01-20T08:59:15.638Z,1395
2023-01-20T09:04:34.463Z,1369
2023-01-20T09:09:52.977Z,1350
2023-01-20T09:15:11.700Z,1334
2023-01-20T09:20:30.536Z,1319
2023-01-20T09:25:49.033Z,1295
2023-01-20T09:31:07.380Z,1271
2023-01-20T09:36:28.052Z,1256
2023-01-20T09:41:47.084Z,1236
2023-01-20T09:47:06.062Z,1215
2023-01-20T09:52:27.512Z,1202
2023-01-20T09:57:45.492Z,1188
2023-01-20T10:03:03.692Z,1171
2023-01-20T10:08:21.966Z,1162
2023-01-20T10:57:51.421Z,1150
2023-01-20T11:03:13.001Z,1153
2023-01-20T11:24:34.302Z,1140
2023-01-20T11:51:05.971Z,1143
2023-01-20T11:56:27.441Z,1145
2023-01-20T12:01:46.208Z,1142
2023-01-20T12:07:04.529Z,1140
2023-01-20T12:12:26.594Z,1134
2023-01-20T12:17:45.440Z,953
2023-01-20T12:23:03.713Z,1003
2023-01-20T12:28:22.476Z,1045
2023-01-20T12:33:25.040Z,1053
2023-01-20T12:38:43.644Z,1057
2023-01-20T12:44:02.123Z,1063
2023-01-20T12:49:20.423Z,1085
2023-01-20T12:54:47.683Z,1081
2023-01-20T13:00:08.372Z,1082
2023-01-20T13:05:26.609Z,1082
2023-01-20T13:10:29.475Z,1078
2023-01-20T13:15:47.390Z,1071
2023-01-20T13:21:06.163Z,1069
2023-01-20T13:26:25.815Z,1069
2023-01-20T13:31:45.851Z,1062
2023-01-20T13:37:04.973Z,1050
2023-01-20T13:42:24.030Z,1049
2023-01-20T13:47:42.840Z,1045
2023-01-20T13:53:01.302Z,1044
2023-01-20T13:58:20.154Z,1052
2023-01-20T14:03:38.336Z,1048
2023-01-20T14:08:56.839Z,1044
2023-01-20T14:14:15.654Z,1041
2023-01-20T14:19:33.867Z,1036
2023-01-20T14:24:52.672Z,1031
2023-01-20T14:30:10.932Z,1028
2023-01-20T14:35:29.486Z,1026
2023-01-20T15:07:17.285Z,1006
2023-01-20T15:12:35.880Z,1007
2023-01-20T15:17:54.368Z,999
2023-01-20T15:23:12.644Z,1000
2023-01-20T15:28:15.820Z,996
2023-01-20T15:33:18.943Z,997
2023-01-20T15:38:37.964Z,993
2023-01-20T15:43:56.426Z,995
2023-01-20T15:49:15.159Z,993
2023-01-20T15:54:33.696Z,993
2023-01-20T15:59:52.190Z,1004
2023-01-20T16:05:13.345Z,1005
2023-01-20T16:10:35.859Z,997
2023-01-20T16:15:54.351Z,999
2023-01-20T16:21:13.241Z,1007
2023-01-20T16:26:31.836Z,1045
2023-01-20T16:31:50.336Z,1047
2023-01-20T16:37:08.740Z,1035
2023-01-20T16:42:27.545Z,1031
2023-01-20T16:47:46.100Z,1016
2023-01-20T16:53:04.963Z,1008
2023-01-20T16:58:23.525Z,1004
2023-01-20T17:03:42.307Z,1002
2023-01-20T17:09:01.090Z,1016
2023-01-20T17:14:19.650Z,1024
2023-01-20T17:19:22.217Z,1033
2023-01-20T17:24:41.033Z,1029
2023-01-20T17:29:59.835Z,1031
2023-01-20T17:35:18.308Z,1030
2023-01-20T17:40:36.565Z,1031
2023-01-20T17:45:54.798Z,1023
2023-01-20T17:51:13.362Z,1033
2023-01-20T17:56:32.103Z,1039
2023-01-20T18:01:50.724Z,1044
2023-01-20T18:07:09.446Z,1040
2023-01-20T18:12:27.928Z,1044
2023-01-20T18:17:46.463Z,1045
2023-01-20T18:23:05.246Z,1051
2023-01-20T18:28:23.997Z,1062
2023-01-20T18:33:42.669Z,1079
2023-01-20T18:38:45.518Z,1087
2023-01-20T18:44:04.035Z,1098
2023-01-20T18:49:22.547Z,1097
2023-01-20T18:54:41.101Z,1077
2023-01-20T18:59:59.570Z,1058
2023-01-20T19:05:02.186Z,1042
2023-01-20T19:10:20.712Z,1014
2023-01-20T19:15:39.209Z,1004
2023-01-20T19:20:42.115Z,997
2023-01-20T19:26:00.689Z,991
2023-01-20T19:31:19.518Z,992
2023-01-20T19:36:38.201Z,993
2023-01-20T19:41:56.741Z,998
2023-01-20T19:47:15.341Z,1002
2023-01-20T19:52:33.594Z,1010
2023-01-20T19:57:57.427Z,1019
2023-01-20T20:03:15.458Z,1022
2023-01-20T20:08:34.068Z,1035
2023-01-20T20:13:52.639Z,1034
2023-01-20T20:19:11.446Z,1043
2023-01-20T20:24:31.097Z,1050
2023-01-20T20:29:49.371Z,1071
2023-01-20T20:35:08.132Z,1079
2023-01-20T20:40:26.049Z,1080
2023-01-20T20:45:44.369Z,1090
2023-01-20T20:51:02.361Z,1097
2023-01-20T20:56:21.088Z,1108
2023-01-20T21:01:42.632Z,1117
2023-01-20T21:07:01.389Z,1126
2023-01-20T21:12:20.241Z,1141
2023-01-20T21:17:38.839Z,1146
2023-01-20T21:22:57.643Z,1153
2023-01-20T21:28:16.585Z,1159
2023-01-20T21:33:36.810Z,1164
2023-01-20T21:38:56.570Z,1169
2023-01-20T21:44:15.063Z,1171
2023-01-20T21:49:33.621Z,1174
2023-01-20T21:54:51.864Z,1177
2023-01-20T22:00:10.412Z,648
2023-01-20T22:05:28.688Z,726
2023-01-20T22:10:47.149Z,818
2023-01-20T22:16:05.752Z,867
2023-01-20T22:21:24.357Z,894
2023-01-20T22:26:42.828Z,927
2023-01-20T22:32:01.626Z,993
2023-01-20T22:37:20.103Z,1026
2023-01-20T22:42:38.571Z,1072
2023-01-20T22:47:57.409Z,1107
2023-01-20T22:53:15.628Z,1124
2023-01-20T22:58:34.165Z,1159
2023-01-20T23:03:52.427Z,1189
2023-01-20T23:09:10.709Z,1225
2023-01-20T23:14:28.890Z,1235
2023-01-20T23:19:47.149Z,1242
2023-01-20T23:25:05.768Z,1271
2023-01-20T23:30:23.970Z,1282
2023-01-20T23:35:42.536Z,1294
2023-01-20T23:41:01.066Z,1285
2023-01-20T23:46:19.269Z,1279
2023-01-20T23:51:37.816Z,1282
2023-01-20T23:56:55.738Z,1285
